createdAt,value
2022-09-01T00:00:49.110Z,1006.3
2022-09-01T00:01:50.048Z,1006.3
2022-09-01T00:02:51.104Z,1006.3
2022-09-01T00:03:52.149Z,1006.3
2022-09-01T00:04:53.051Z,1006.3
2022-09-01T00:05:54.291Z,1006.3
2022-09-01T00:06:56.059Z,1006.3
2022-09-01T00:07:57.055Z,1006.3
2022-09-01T00:08:58.067Z,1006.3
2022-09-01T00:09:59.073Z,1006.3
2022-09-01T00:11:00.101Z,1006.3
2022-09-01T00:12:01.108Z,1006.3
2022-09-01T00:13:02.287Z,1006.3
2022-09-01T00:14:04.060Z,1006.3
2022-09-01T00:15:05.089Z,1006.3
2022-09-01T00:16:06.210Z,1006.4
2022-09-01T00:17:08.082Z,1006.3
2022-09-01T00:18:09.275Z,1006.3
2022-09-01T00:19:11.094Z,1006.3
2022-09-01T00:20:12.899Z,1006.3
2022-09-01T00:21:13.099Z,1006.3
2022-09-01T00:22:14.115Z,1006.3
2022-09-01T00:23:15.081Z,1006.4
2022-09-01T00:24:16.090Z,1006.3
2022-09-01T00:25:17.088Z,1006.3
2022-09-01T00:26:18.110Z,1006.3
2022-09-01T00:27:19.100Z,1006.4
2022-09-01T00:28:20.264Z,1006.4
2022-09-01T00:29:21.114Z,1006.4
2022-09-01T00:30:22.163Z,1006.4
2022-09-01T00:31:23.135Z,1006.3
2022-09-01T00:32:24.092Z,1006.3
2022-09-01T00:33:25.099Z,1006.4
2022-09-01T00:34:26.127Z,1006.4
2022-09-01T00:35:27.100Z,1006.3
2022-09-01T00:36:28.101Z,1006.3
2022-09-01T00:37:29.138Z,1006.3
2022-09-01T00:38:30.138Z,1006.3
2022-09-01T00:39:31.108Z,1006.3
2022-09-01T00:40:33.237Z,1006.3
2022-09-01T00:41:34.124Z,1006.3
2022-09-01T00:42:35.387Z,1006.3
2022-09-01T00:43:37.406Z,1006.3
2022-09-01T00:44:39.283Z,1006.3
2022-09-01T00:45:41.265Z,1006.3
2022-09-01T00:46:47.789Z,1006.3
2022-09-01T00:47:45.222Z,1006.2
2022-09-01T00:48:47.220Z,1006.2
2022-09-01T00:49:49.248Z,1006.2
2022-09-01T00:50:51.293Z,1006.2
2022-09-01T00:51:53.276Z,1006.2
2022-09-01T00:52:55.255Z,1006.2
2022-09-01T00:53:57.338Z,1006.2
2022-09-01T00:54:59.289Z,1006.2
2022-09-01T00:56:01.271Z,1006.2
2022-09-01T00:57:03.293Z,1006.2
2022-09-01T00:58:05.219Z,1006.2
2022-09-01T00:59:07.593Z,1006.2
2022-09-01T01:00:09.280Z,1006.2
2022-09-01T01:01:11.343Z,1006.2
2022-09-01T01:02:13.315Z,1006.2
2022-09-01T01:03:15.264Z,1006.2
2022-09-01T01:04:17.269Z,1006.2
2022-09-01T01:05:19.314Z,1006.2
2022-09-01T01:06:21.378Z,1006.2
2022-09-01T01:07:23.316Z,1006.2
2022-09-01T01:08:25.416Z,1006.2
2022-09-01T01:09:27.240Z,1006.2
2022-09-01T01:10:29.483Z,1006.1
2022-09-01T01:11:31.598Z,1006.1
2022-09-01T01:12:33.189Z,1006.1
2022-09-01T01:13:35.294Z,1006.1
2022-09-01T01:14:37.197Z,1006.1
2022-09-01T01:15:39.227Z,1006.1
2022-09-01T01:16:41.410Z,1006.1
2022-09-01T01:17:43.264Z,1006.1
2022-09-01T01:18:45.200Z,1006.1
2022-09-01T01:19:47.179Z,1006.1
2022-09-01T01:20:48.181Z,1006.1
2022-09-01T01:21:49.173Z,1006.1
2022-09-01T01:22:50.180Z,1006.2
2022-09-01T01:23:51.196Z,1006.2
2022-09-01T01:24:52.183Z,1006.2
2022-09-01T01:25:53.203Z,1006.2
2022-09-01T01:26:54.180Z,1006.2
2022-09-01T01:27:55.190Z,1006.1
2022-09-01T01:28:57.361Z,1006.1
2022-09-01T01:29:59.248Z,1006.2
2022-09-01T01:31:00.217Z,1006.1
2022-09-01T01:32:01.220Z,1006.2
2022-09-01T01:33:02.186Z,1006.2
2022-09-01T01:34:03.193Z,1006.2
2022-09-01T01:35:04.252Z,1006.2
2022-09-01T01:36:05.202Z,1006.2
2022-09-01T01:37:06.201Z,1006.2
2022-09-01T01:38:07.189Z,1006.1
2022-09-01T01:39:08.204Z,1006.1
2022-09-01T01:40:09.306Z,1006.1
2022-09-01T01:41:10.205Z,1006.1
2022-09-01T01:42:11.233Z,1006.1
2022-09-01T01:43:12.255Z,1006.2
2022-09-01T01:44:13.204Z,1006.1
2022-09-01T01:45:14.219Z,1006.1
2022-09-01T01:46:15.252Z,1006.2
2022-09-01T01:47:16.272Z,1006.1
2022-09-01T01:48:17.243Z,1006.1
2022-09-01T01:49:18.208Z,1006
2022-09-01T01:50:19.213Z,1006.1
2022-09-01T01:51:20.222Z,1006.1
2022-09-01T01:52:21.246Z,1006
2022-09-01T01:53:22.225Z,1006.1
2022-09-01T01:54:23.245Z,1006
2022-09-01T01:55:24.221Z,1006.1
2022-09-01T01:56:25.228Z,1006.1
2022-09-01T01:57:26.248Z,1006.1
2022-09-01T01:58:27.226Z,1006
2022-09-01T01:59:28.232Z,1006
2022-09-01T02:00:30.301Z,1006
2022-09-01T02:01:30.284Z,1006
2022-09-01T02:02:31.248Z,1006
2022-09-01T02:03:32.296Z,1006
2022-09-01T02:04:33.252Z,1006
2022-09-01T02:05:34.241Z,1006
2022-09-01T02:06:35.237Z,1006
2022-09-01T02:07:36.239Z,1006
2022-09-01T02:08:37.265Z,1006
2022-09-01T02:09:38.239Z,1006
2022-09-01T02:10:39.254Z,1006
2022-09-01T02:11:40.248Z,1006
2022-09-01T02:12:41.283Z,1006
2022-09-01T02:13:42.330Z,1006
2022-09-01T02:14:43.259Z,1006
2022-09-01T02:15:44.286Z,1006
2022-09-01T02:16:45.322Z,1006
2022-09-01T02:17:46.265Z,1006
2022-09-01T02:18:47.315Z,1006
2022-09-01T02:19:48.264Z,1006
2022-09-01T02:20:49.282Z,1006
2022-09-01T02:21:50.270Z,1006
2022-09-01T02:22:51.307Z,1006.1
2022-09-01T02:23:52.298Z,1006.1
2022-09-01T02:24:53.273Z,1006
2022-09-01T02:26:14.947Z,1006
2022-09-01T02:26:55.278Z,1006
2022-09-01T02:27:56.271Z,1006
2022-09-01T02:28:57.310Z,1006
2022-09-01T02:29:58.297Z,1006
2022-09-01T02:30:59.349Z,1006
2022-09-01T02:32:00.272Z,1006
2022-09-01T02:33:01.326Z,1006
2022-09-01T02:34:02.327Z,1006
2022-09-01T02:35:03.279Z,1006
2022-09-01T02:36:04.298Z,1006
2022-09-01T02:37:05.297Z,1006
2022-09-01T02:38:06.282Z,1006
2022-09-01T02:39:08.108Z,1006
2022-09-01T02:40:08.373Z,1006
2022-09-01T02:41:09.350Z,1006
2022-09-01T02:42:10.293Z,1006
2022-09-01T02:43:11.306Z,1006
2022-09-01T02:44:12.292Z,1006
2022-09-01T02:45:13.304Z,1006
2022-09-01T02:46:14.446Z,1006
2022-09-01T02:47:15.305Z,1006
2022-09-01T02:48:16.424Z,1006
2022-09-01T02:49:17.341Z,1006
2022-09-01T02:50:18.343Z,1006
2022-09-01T02:51:19.319Z,1006
2022-09-01T02:52:20.317Z,1006
2022-09-01T02:53:21.351Z,1006
2022-09-01T02:54:22.380Z,1006
2022-09-01T02:55:23.308Z,1006
2022-09-01T02:56:25.152Z,1006
2022-09-01T02:57:25.328Z,1006
2022-09-01T02:58:26.522Z,1006
2022-09-01T02:59:28.603Z,1006
2022-09-01T03:00:30.454Z,1006
2022-09-01T03:01:32.695Z,1006
2022-09-01T03:02:34.481Z,1006
2022-09-01T03:03:36.472Z,1006
2022-09-01T03:04:38.598Z,1006
2022-09-01T03:05:40.606Z,1005.9
2022-09-01T03:06:42.527Z,1006
2022-09-01T03:07:44.606Z,1006
2022-09-01T03:08:47.486Z,1006
2022-09-01T03:09:49.450Z,1006
2022-09-01T03:10:51.527Z,1006
2022-09-01T03:11:53.589Z,1006
2022-09-01T03:12:55.490Z,1006
2022-09-01T03:13:57.546Z,1006
2022-09-01T03:14:59.586Z,1006
2022-09-01T03:16:01.481Z,1006
2022-09-01T03:17:03.511Z,1006
2022-09-01T03:18:05.360Z,1006
2022-09-01T03:19:06.818Z,1006
2022-09-01T03:20:08.612Z,1006
2022-09-01T03:21:10.497Z,1006
2022-09-01T03:22:12.557Z,1006
2022-09-01T03:23:14.504Z,1006
2022-09-01T03:24:16.565Z,1006
2022-09-01T03:25:18.560Z,1006
2022-09-01T03:26:20.567Z,1006
2022-09-01T03:27:22.649Z,1006
2022-09-01T03:28:24.448Z,1006
2022-09-01T03:29:25.517Z,1006
2022-09-01T03:30:27.474Z,1006
2022-09-01T03:31:31.233Z,1006.1
2022-09-01T03:32:31.452Z,1006.1
2022-09-01T03:33:33.478Z,1006.1
2022-09-01T03:34:35.424Z,1006.1
2022-09-01T03:35:37.672Z,1006
2022-09-01T03:36:39.637Z,1006
2022-09-01T03:37:41.771Z,1006
2022-09-01T03:38:43.387Z,1006.1
2022-09-01T03:39:44.420Z,1006
2022-09-01T03:40:45.511Z,1006
2022-09-01T03:41:46.443Z,1006.1
2022-09-01T03:42:47.385Z,1006
2022-09-01T03:43:48.634Z,1006
2022-09-01T03:44:49.402Z,1006
2022-09-01T03:45:50.432Z,1006
2022-09-01T03:46:51.425Z,1006
2022-09-01T03:47:52.394Z,1006
2022-09-01T03:48:53.397Z,1006.1
2022-09-01T03:49:54.405Z,1006.1
2022-09-01T03:50:55.438Z,1006.1
2022-09-01T03:51:56.446Z,1006
2022-09-01T03:52:57.487Z,1006.1
2022-09-01T03:54:00.444Z,1006.1
2022-09-01T03:55:01.461Z,1006.1
2022-09-01T03:56:02.412Z,1006
2022-09-01T03:57:03.593Z,1006.1
2022-09-01T03:58:05.428Z,1006.1
2022-09-01T03:59:07.545Z,1006
2022-09-01T04:00:07.470Z,1006.1
2022-09-01T04:01:10.886Z,1006.1
2022-09-01T04:02:10.501Z,1006.1
2022-09-01T04:03:11.444Z,1006.1
2022-09-01T04:04:12.454Z,1006.1
2022-09-01T04:05:13.431Z,1006.1
2022-09-01T04:06:14.430Z,1006.1
2022-09-01T04:07:17.198Z,1006.1
2022-09-01T04:08:16.528Z,1006.1
2022-09-01T04:09:17.454Z,1006.1
2022-09-01T04:10:18.435Z,1006.1
2022-09-01T04:11:19.440Z,1006.1
2022-09-01T04:12:20.446Z,1006.1
2022-09-01T04:13:21.482Z,1006
2022-09-01T04:14:22.471Z,1006.1
2022-09-01T04:15:23.460Z,1006.1
2022-09-01T04:16:24.500Z,1006.1
2022-09-01T04:17:28.678Z,1006.1
2022-09-01T04:18:26.471Z,1006.1
2022-09-01T04:19:27.475Z,1006.1
2022-09-01T04:20:28.451Z,1006
2022-09-01T04:21:29.482Z,1006
2022-09-01T04:22:30.454Z,1006
2022-09-01T04:23:31.480Z,1006
2022-09-01T04:24:32.483Z,1006
2022-09-01T04:25:33.468Z,1006
2022-09-01T04:26:34.464Z,1006
2022-09-01T04:27:35.536Z,1006
2022-09-01T04:28:36.467Z,1006
2022-09-01T04:29:37.530Z,1006.1
2022-09-01T04:30:38.505Z,1006.1
2022-09-01T04:31:39.504Z,1006.1
2022-09-01T04:32:40.503Z,1006
2022-09-01T04:33:41.468Z,1006
2022-09-01T04:34:42.505Z,1006.1
2022-09-01T04:35:43.474Z,1006
2022-09-01T04:36:44.475Z,1006
2022-09-01T04:37:45.495Z,1006
2022-09-01T04:38:46.479Z,1006
2022-09-01T04:39:47.510Z,1006.1
2022-09-01T04:40:48.545Z,1006.1
2022-09-01T04:41:49.499Z,1006.1
2022-09-01T04:42:50.515Z,1006
2022-09-01T04:43:51.488Z,1006
2022-09-01T04:44:52.519Z,1006
2022-09-01T04:45:53.616Z,1006.1
2022-09-01T04:46:54.499Z,1006.1
2022-09-01T04:47:55.508Z,1006
2022-09-01T04:48:56.498Z,1006.1
2022-09-01T04:49:57.526Z,1006.1
2022-09-01T04:50:58.526Z,1006.1
2022-09-01T04:51:59.527Z,1006.1
2022-09-01T04:53:00.504Z,1006.1
2022-09-01T04:54:01.653Z,1006.1
2022-09-01T04:55:03.544Z,1006.1
2022-09-01T04:56:04.533Z,1006.1
2022-09-01T04:57:05.579Z,1006.1
2022-09-01T04:58:10.018Z,1006.1
2022-09-01T04:59:07.554Z,1006.1
2022-09-01T05:00:08.527Z,1006.1
2022-09-01T05:01:09.548Z,1006.1
2022-09-01T05:02:10.760Z,1006.1
2022-09-01T05:03:12.528Z,1006.1
2022-09-01T05:04:13.523Z,1006.1
2022-09-01T05:05:14.532Z,1006.1
2022-09-01T05:06:15.530Z,1006.1
2022-09-01T05:07:16.568Z,1006.1
2022-09-01T05:08:23.791Z,1006.1
2022-09-01T05:09:18.550Z,1006.1
2022-09-01T05:10:19.525Z,1006.1
2022-09-01T05:11:20.557Z,1006.1
2022-09-01T05:12:21.585Z,1006.1
2022-09-01T05:13:22.535Z,1006.2
2022-09-01T05:14:23.602Z,1006.2
2022-09-01T05:15:24.550Z,1006.2
2022-09-01T05:16:25.734Z,1006.2
2022-09-01T05:17:26.540Z,1006.1
2022-09-01T05:18:27.538Z,1006.1
2022-09-01T05:19:28.586Z,1006.1
2022-09-01T05:20:29.547Z,1006.1
2022-09-01T05:21:30.546Z,1006.1
2022-09-01T05:22:31.555Z,1006.1
2022-09-01T05:23:32.569Z,1006.1
2022-09-01T05:24:33.546Z,1006.1
2022-09-01T05:25:34.563Z,1006.1
2022-09-01T05:26:35.623Z,1006.1
2022-09-01T05:27:36.594Z,1006.1
2022-09-01T05:28:37.580Z,1006.1
2022-09-01T05:29:38.570Z,1006.1
2022-09-01T05:30:39.570Z,1006.1
2022-09-01T05:31:40.656Z,1006.1
2022-09-01T05:32:41.574Z,1006.1
2022-09-01T05:33:42.595Z,1006.1
2022-09-01T05:34:43.566Z,1006.1
2022-09-01T05:35:45.567Z,1006
2022-09-01T05:36:46.570Z,1006
2022-09-01T05:37:47.566Z,1005.9
2022-09-01T05:38:48.615Z,1005.7
2022-09-01T05:39:49.783Z,1005.5
2022-09-01T05:40:51.626Z,1005.4
2022-09-01T05:41:52.587Z,1005.1
2022-09-01T05:42:53.597Z,1005
2022-09-01T05:43:59.558Z,1005
2022-09-01T05:44:55.608Z,1005
2022-09-01T05:46:06.436Z,1004.9
2022-09-01T05:46:57.662Z,1004.9
2022-09-01T05:47:58.584Z,1005.4
2022-09-01T05:48:59.630Z,1005.8
2022-09-01T05:50:00.600Z,1006
2022-09-01T05:51:01.621Z,1006.1
2022-09-01T05:52:02.601Z,1006.2
2022-09-01T05:53:03.631Z,1006.2
2022-09-01T05:54:04.606Z,1006.2
2022-09-01T05:55:05.614Z,1006.2
2022-09-01T05:56:06.639Z,1006.2
2022-09-01T05:57:23.702Z,1006.2
2022-09-01T05:58:08.602Z,1006.2
2022-09-01T05:59:25.967Z,1006.2
2022-09-01T06:00:10.667Z,1006.1
2022-09-01T06:01:11.616Z,1005.9
2022-09-01T06:02:13.114Z,1006.1
2022-09-01T06:03:14.755Z,1006.1
2022-09-01T06:04:15.611Z,1005.9
2022-09-01T06:05:16.614Z,1006.1
2022-09-01T06:06:17.659Z,1006.2
2022-09-01T06:07:25.206Z,1006.3
2022-09-01T06:08:19.653Z,1006.3
2022-09-01T06:09:20.653Z,1006.3
2022-09-01T06:10:21.694Z,1006.4
2022-09-01T06:11:22.631Z,1006.3
2022-09-01T06:12:23.626Z,1006.3
2022-09-01T06:13:25.664Z,1006.3
2022-09-01T06:14:25.676Z,1006.3
2022-09-01T06:15:26.662Z,1006.3
2022-09-01T06:16:27.710Z,1006.3
2022-09-01T06:17:28.636Z,1006.3
2022-09-01T06:18:29.639Z,1006.3
2022-09-01T06:19:33.624Z,1006.3
2022-09-01T06:20:31.664Z,1006.3
2022-09-01T06:21:32.643Z,1006.3
2022-09-01T06:22:33.687Z,1006.3
2022-09-01T06:23:34.649Z,1006.1
2022-09-01T06:24:35.683Z,1006.2
2022-09-01T06:25:36.653Z,1006.2
2022-09-01T06:26:37.672Z,1006.2
2022-09-01T06:27:38.715Z,1006.2
2022-09-01T06:28:39.705Z,1006
2022-09-01T06:29:40.686Z,1005.9
2022-09-01T06:30:41.692Z,1006
2022-09-01T06:31:42.723Z,1006.1
2022-09-01T06:32:43.704Z,1006.1
2022-09-01T06:33:44.693Z,1006.1
2022-09-01T06:34:45.702Z,1006.2
2022-09-01T06:35:46.687Z,1006.2
2022-09-01T06:36:47.661Z,1006.1
2022-09-01T06:37:49.868Z,1005.8
2022-09-01T06:38:53.711Z,1005.5
2022-09-01T06:39:55.748Z,1005.3
2022-09-01T06:40:56.764Z,1005.4
2022-09-01T06:41:57.678Z,1005.8
2022-09-01T06:42:58.670Z,1005.9
2022-09-01T06:43:59.689Z,1005.7
2022-09-01T06:45:00.685Z,1005.6
2022-09-01T06:46:01.894Z,1005.9
2022-09-01T06:47:03.716Z,1006
2022-09-01T06:48:05.745Z,1005.9
2022-09-01T06:49:07.684Z,1005.9
2022-09-01T06:50:08.716Z,1006.1
2022-09-01T06:51:18.857Z,1005.8
2022-09-01T06:52:10.697Z,1005.6
2022-09-01T06:54:13.896Z,1006
2022-09-01T06:55:13.731Z,1006
2022-09-01T06:56:14.700Z,1006.2
2022-09-01T06:58:16.783Z,1006.1
2022-09-01T06:59:17.713Z,1006.2
2022-09-01T07:00:19.124Z,1005.9
2022-09-01T07:01:20.156Z,1005.7
2022-09-01T07:02:24.534Z,1005.6
2022-09-01T07:03:23.705Z,1005.5
2022-09-01T07:04:24.938Z,1005.5
2022-09-01T07:08:28.738Z,1005.6
2022-09-01T07:09:39.058Z,1005.9
2022-09-01T07:10:30.755Z,1006.1
2022-09-01T07:12:32.747Z,1006.3
2022-09-01T07:16:30.063Z,1005.9
2022-09-01T07:16:41.776Z,1006
2022-09-01T07:17:38.736Z,1006.1
2022-09-01T07:18:39.765Z,1006.1
2022-09-01T07:19:56.126Z,1005.9
2022-09-01T07:21:02.641Z,1005.9
2022-09-01T07:22:06.610Z,1005.8
2022-09-01T07:24:05.961Z,1005.8
2022-09-01T07:24:45.777Z,1005.8
2022-09-01T07:26:02.134Z,1005.8
2022-09-01T07:26:47.809Z,1005.9
2022-09-01T07:27:48.813Z,1006
2022-09-01T07:28:49.797Z,1006
2022-09-01T07:29:50.760Z,1005.9
2022-09-01T07:30:51.771Z,1006
2022-09-01T07:32:43.878Z,1006
2022-09-01T07:32:53.944Z,1006
2022-09-01T07:33:55.477Z,1006
2022-09-01T07:34:55.842Z,1006
2022-09-01T07:42:58.475Z,1006
2022-09-01T07:44:04.789Z,1006.1
2022-09-01T07:47:52.269Z,1006.1
2022-09-01T07:48:08.814Z,1006.1
2022-09-01T07:50:24.956Z,1006.1
2022-09-01T07:51:41.381Z,1006.2
2022-09-01T07:52:12.826Z,1006.2
2022-09-01T07:53:13.820Z,1006.2
2022-09-01T07:54:14.884Z,1006.2
2022-09-01T07:55:15.841Z,1006.2
2022-09-01T07:56:16.819Z,1006.1
2022-09-01T07:57:17.806Z,1006.1
2022-09-01T07:58:18.820Z,1006.1
2022-09-01T07:59:19.847Z,1006.1
2022-09-01T08:00:20.822Z,1006.1
2022-09-01T08:01:21.846Z,1006.1
2022-09-01T08:02:22.872Z,1006.1
2022-09-01T08:03:24.068Z,1006.1
2022-09-01T08:04:24.842Z,1006.2
2022-09-01T08:05:25.868Z,1006.2
2022-09-01T08:06:27.195Z,1006.2
2022-09-01T08:07:27.829Z,1006.2
2022-09-01T08:08:29.515Z,1006.2
2022-09-01T08:09:37.356Z,1006.2
2022-09-01T08:10:30.841Z,1006.2
2022-09-01T08:12:32.851Z,1006.3
2022-09-01T08:13:37.273Z,1006.2
2022-09-01T08:14:34.847Z,1006.2
2022-09-01T08:15:40.860Z,1006.2
2022-09-01T08:16:40.264Z,1006.2
2022-09-01T08:17:53.474Z,1006.3
2022-09-01T08:18:54.058Z,1006.3
2022-09-01T08:19:39.850Z,1006.3
2022-09-01T08:20:41.886Z,1006.3
2022-09-01T08:21:42.856Z,1006.4
2022-09-01T08:22:43.864Z,1006.4
2022-09-01T08:23:44.926Z,1006.4
2022-09-01T08:24:45.848Z,1006.4
2022-09-01T08:25:46.868Z,1006.4
2022-09-01T08:26:47.896Z,1006.4
2022-09-01T08:27:48.915Z,1006.8
2022-09-01T08:28:54.879Z,1006.9
2022-09-01T08:29:50.914Z,1007
2022-09-01T08:30:52.424Z,1007.1
2022-09-01T08:31:52.920Z,1006.9
2022-09-01T08:32:53.915Z,1006.6
2022-09-01T08:33:54.915Z,1006.8
2022-09-01T08:34:55.889Z,1006.6
2022-09-01T08:35:56.884Z,1006.8
2022-09-01T08:36:57.900Z,1006.6
2022-09-01T08:37:58.945Z,1006.5
2022-09-01T08:38:59.923Z,1006.5
2022-09-01T08:40:00.955Z,1006.4
2022-09-01T08:41:02.010Z,1006.4
2022-09-01T08:42:02.937Z,1006.4
2022-09-01T08:43:03.938Z,1006.4
2022-09-01T08:44:04.896Z,1006.4
2022-09-01T08:45:06.397Z,1006.4
2022-09-01T08:46:07.986Z,1006.5
2022-09-01T08:47:08.907Z,1006.5
2022-09-01T08:49:27.282Z,1006.5
2022-09-01T08:50:11.969Z,1006.5
2022-09-01T08:51:19.937Z,1006.5
2022-09-01T08:52:16.938Z,1006.5
2022-09-01T08:53:17.946Z,1006.5
2022-09-01T08:54:20.125Z,1006.5
2022-09-01T08:55:19.936Z,1006.5
2022-09-01T08:56:20.932Z,1006.5
2022-09-01T08:57:21.971Z,1006.6
2022-09-01T08:58:23.085Z,1006.8
2022-09-01T08:59:23.992Z,1006.6
2022-09-01T09:00:24.938Z,1006.6
2022-09-01T09:01:25.976Z,1006.5
2022-09-01T09:02:27.029Z,1006.5
2022-09-01T09:03:40.367Z,1006.5
2022-09-01T09:04:28.957Z,1006.5
2022-09-01T09:05:30.290Z,1006.5
2022-09-01T09:06:31.942Z,1006.5
2022-09-01T09:07:32.946Z,1006.5
2022-09-01T09:08:33.935Z,1006.5
2022-09-01T09:09:34.960Z,1006.5
2022-09-01T09:10:35.970Z,1006.5
2022-09-01T09:11:37.032Z,1006.5
2022-09-01T09:12:48.855Z,1006.5
2022-09-01T09:13:38.956Z,1006.5
2022-09-01T09:14:39.957Z,1006.5
2022-09-01T09:15:41.057Z,1006.6
2022-09-01T09:16:41.960Z,1006.6
2022-09-01T09:17:42.952Z,1006.6
2022-09-01T09:18:55.558Z,1006.8
2022-09-01T09:19:44.961Z,1006.7
2022-09-01T09:20:46.003Z,1006.9
2022-09-01T09:21:47.470Z,1007
2022-09-01T09:22:48.023Z,1007.1
2022-09-01T09:23:48.972Z,1007.1
2022-09-01T09:24:50.016Z,1007.1
2022-09-01T09:25:51.034Z,1007.1
2022-09-01T09:26:52.015Z,1007.1
2022-09-01T09:28:00.753Z,1007.1
2022-09-01T09:28:53.975Z,1007.1
2022-09-01T09:29:54.996Z,1006.8
2022-09-01T09:30:56.418Z,1006.7
2022-09-01T09:31:58.316Z,1006.8
2022-09-01T09:33:59.323Z,1006.6
2022-09-01T09:35:00.016Z,1006.6
2022-09-01T09:36:01.047Z,1006.6
2022-09-01T09:37:01.661Z,1006.6
2022-09-01T09:38:03.030Z,1006.5
2022-09-01T09:39:04.000Z,1006.5
2022-09-01T09:40:05.023Z,1006.5
2022-09-01T09:41:26.770Z,1006.7
2022-09-01T09:42:07.020Z,1006.6
2022-09-01T09:43:08.006Z,1006.7
2022-09-01T09:44:11.174Z,1006.9
2022-09-01T09:45:10.014Z,1006.7
2022-09-01T09:46:23.067Z,1006.7
2022-09-01T09:47:27.376Z,1006.6
2022-09-01T09:48:13.013Z,1006.7
2022-09-01T09:49:14.673Z,1006.8
2022-09-01T09:50:15.038Z,1006.8
2022-09-01T09:51:16.046Z,1006.7
2022-09-01T09:52:17.065Z,1006.8
2022-09-01T09:53:18.065Z,1006.9
2022-09-01T09:54:19.031Z,1006.8
2022-09-01T09:55:20.018Z,1006.7
2022-09-01T09:56:21.055Z,1006.8
2022-09-01T09:57:22.117Z,1006.9
2022-09-01T09:58:23.032Z,1006.9
2022-09-01T09:59:39.789Z,1006.9
2022-09-01T10:00:25.777Z,1006.9
2022-09-01T10:01:26.178Z,1006.7
2022-09-01T10:02:27.756Z,1006.6
2022-09-01T10:03:29.059Z,1006.6
2022-09-01T10:04:29.130Z,1006.6
2022-09-01T10:05:30.413Z,1006.6
2022-09-01T10:06:31.122Z,1006.5
2022-09-01T10:07:32.061Z,1006.5
2022-09-01T10:08:33.097Z,1006.5
2022-09-01T10:09:34.048Z,1006.5
2022-09-01T10:10:35.066Z,1006.5
2022-09-01T10:11:36.126Z,1006.5
2022-09-01T10:12:37.060Z,1006.6
2022-09-01T10:13:38.102Z,1006.6
2022-09-01T10:14:54.099Z,1006.6
2022-09-01T10:15:40.062Z,1006.6
2022-09-01T10:16:41.113Z,1006.6
2022-09-01T10:17:43.505Z,1006.6
2022-09-01T10:18:43.089Z,1006.5
2022-09-01T10:19:44.113Z,1006.7
2022-09-01T10:20:45.077Z,1006.8
2022-09-01T10:21:46.073Z,1006.9
2022-09-01T10:22:50.888Z,1006.9
2022-09-01T10:23:48.104Z,1006.9
2022-09-01T10:24:50.209Z,1006.8
2022-09-01T10:25:50.113Z,1006.7
2022-09-01T10:26:51.087Z,1006.8
2022-09-01T10:27:54.205Z,1006.9
2022-09-01T10:28:53.104Z,1006.9
2022-09-01T10:30:12.011Z,1006.8
2022-09-01T10:30:55.131Z,1006.9
2022-09-01T10:32:15.037Z,1006.9
2022-09-01T10:33:00.536Z,1006.9
2022-09-01T10:33:58.583Z,1006.7
2022-09-01T10:34:59.546Z,1006.7
2022-09-01T10:36:00.119Z,1006.6
2022-09-01T10:37:01.145Z,1006.6
2022-09-01T10:38:02.175Z,1006.6
2022-09-01T10:39:06.074Z,1006.6
2022-09-01T10:40:04.156Z,1006.6
2022-09-01T10:41:05.140Z,1006.6
2022-09-01T10:42:06.113Z,1006.6
2022-09-01T10:43:12.365Z,1006.6
2022-09-01T10:44:08.112Z,1006.7
2022-09-01T10:45:08.656Z,1006.6
2022-09-01T10:46:15.251Z,1006.6
2022-09-01T10:47:14.644Z,1006.7
2022-09-01T10:48:13.171Z,1006.7
2022-09-01T10:49:13.133Z,1006.7
2022-09-01T10:50:14.158Z,1006.7
2022-09-01T10:51:18.748Z,1006.7
2022-09-01T10:52:16.260Z,1006.7
2022-09-01T10:53:17.419Z,1006.7
2022-09-01T10:54:18.151Z,1006.7
2022-09-01T10:55:24.418Z,1006.7
2022-09-01T10:56:28.269Z,1006.7
2022-09-01T10:57:21.257Z,1006.7
2022-09-01T10:59:31.432Z,1006.7
2022-09-01T11:00:39.899Z,1006.8
2022-09-01T11:01:47.084Z,1006.7
2022-09-01T11:02:27.904Z,1006.7
2022-09-01T11:03:30.258Z,1006.7
2022-09-01T11:04:28.282Z,1006.7
2022-09-01T11:05:33.200Z,1006.7
2022-09-01T11:06:33.117Z,1006.7
2022-09-01T11:07:50.169Z,1006.7
2022-09-01T11:08:32.264Z,1006.8
2022-09-01T11:09:33.189Z,1006.8
2022-09-01T11:10:34.536Z,1006.8
2022-09-01T11:11:35.188Z,1006.8
2022-09-01T11:12:36.200Z,1006.7
2022-09-01T11:13:37.234Z,1006.8
2022-09-01T11:14:37.546Z,1006.7
2022-09-01T11:15:39.196Z,1006.7
2022-09-01T11:16:47.742Z,1006.7
2022-09-01T11:17:41.645Z,1006.7
2022-09-01T11:18:43.183Z,1006.8
2022-09-01T11:19:44.403Z,1006.8
2022-09-01T11:20:45.501Z,1006.8
2022-09-01T11:21:46.766Z,1006.8
2022-09-01T11:22:47.228Z,1006.8
2022-09-01T11:23:48.186Z,1006.8
2022-09-01T11:24:54.552Z,1006.7
2022-09-01T11:26:18.944Z,1006.7
2022-09-01T11:26:51.187Z,1006.8
2022-09-01T11:27:52.259Z,1006.7
2022-09-01T11:28:53.205Z,1006.8
2022-09-01T11:29:55.653Z,1006.8
2022-09-01T11:30:55.375Z,1006.8
2022-09-01T11:31:56.239Z,1006.8
2022-09-01T11:32:57.233Z,1006.8
2022-09-01T11:33:58.248Z,1006.8
2022-09-01T11:34:59.218Z,1006.7
2022-09-01T11:36:00.232Z,1006.7
2022-09-01T11:37:01.237Z,1006.7
2022-09-01T11:38:02.251Z,1006.7
2022-09-01T11:39:03.218Z,1006.7
2022-09-01T11:40:04.349Z,1006.7
2022-09-01T11:41:05.241Z,1006.7
2022-09-01T11:42:05.663Z,1006.7
2022-09-01T11:43:06.632Z,1006.7
2022-09-01T11:44:07.625Z,1006.8
2022-09-01T11:45:09.228Z,1006.7
2022-09-01T11:46:11.449Z,1006.8
2022-09-01T11:47:14.477Z,1006.8
2022-09-01T11:48:13.230Z,1006.8
2022-09-01T11:49:14.242Z,1006.9
2022-09-01T11:50:15.276Z,1006.9
2022-09-01T11:51:16.266Z,1006.8
2022-09-01T11:52:17.250Z,1006.8
2022-09-01T11:53:18.317Z,1006.8
2022-09-01T11:54:19.238Z,1006.7
2022-09-01T11:55:20.260Z,1006.7
2022-09-01T11:56:21.329Z,1006.7
2022-09-01T11:57:22.304Z,1006.7
2022-09-01T11:58:23.242Z,1006.7
2022-09-01T11:59:24.247Z,1006.6
2022-09-01T12:00:25.267Z,1006.6
2022-09-01T12:01:25.690Z,1006.6
2022-09-01T12:02:26.689Z,1006.6
2022-09-01T12:03:27.791Z,1006.6
2022-09-01T12:04:28.625Z,1006.5
2022-09-01T12:05:30.264Z,1006.5
2022-09-01T12:06:31.283Z,1006.6
2022-09-01T12:07:32.287Z,1006.6
2022-09-01T12:08:32.640Z,1006.7
2022-09-01T12:09:34.274Z,1006.7
2022-09-01T12:10:35.275Z,1006.8
2022-09-01T12:11:36.329Z,1006.8
2022-09-01T12:12:37.291Z,1006.8
2022-09-01T12:13:38.294Z,1006.9
2022-09-01T12:15:02.318Z,1006.9
2022-09-01T12:15:50.370Z,1006.8
2022-09-01T12:16:41.371Z,1006.7
2022-09-01T12:17:42.276Z,1006.6
2022-09-01T12:18:43.285Z,1006.6
2022-09-01T12:19:44.281Z,1006.6
2022-09-01T12:20:44.718Z,1006.6
2022-09-01T12:21:46.357Z,1006.5
2022-09-01T12:22:46.685Z,1006.5
2022-09-01T12:23:47.714Z,1006.5
2022-09-01T12:24:48.722Z,1006.5
2022-09-01T12:25:49.665Z,1006.5
2022-09-01T12:26:50.706Z,1006.5
2022-09-01T12:27:52.318Z,1006.5
2022-09-01T12:28:53.379Z,1006.5
2022-09-01T12:29:54.324Z,1006.6
2022-09-01T12:30:55.348Z,1006.6
2022-09-01T12:31:56.363Z,1006.6
2022-09-01T12:33:25.104Z,1006.6
2022-09-01T12:33:58.359Z,1006.6
2022-09-01T12:34:59.312Z,1006.6
2022-09-01T12:36:00.371Z,1006.6
2022-09-01T12:37:01.393Z,1006.6
2022-09-01T12:38:03.051Z,1006.6
2022-09-01T12:39:03.430Z,1006.6
2022-09-01T12:40:05.372Z,1006.6
2022-09-01T12:41:06.331Z,1006.6
2022-09-01T12:42:07.368Z,1006.5
2022-09-01T12:43:08.353Z,1006.5
2022-09-01T12:44:09.364Z,1006.5
2022-09-01T12:45:10.334Z,1006.5
2022-09-01T12:46:11.367Z,1006.4
2022-09-01T12:47:12.377Z,1006.4
2022-09-01T12:48:12.760Z,1006.4
2022-09-01T12:50:16.355Z,1006.3
2022-09-01T12:51:16.346Z,1006.3
2022-09-01T12:52:19.828Z,1006.4
2022-09-01T12:53:17.737Z,1006.4
2022-09-01T12:54:18.773Z,1006.4
2022-09-01T12:56:21.395Z,1006.4
2022-09-01T12:57:22.390Z,1006.4
2022-09-01T12:58:23.402Z,1006.5
2022-09-01T12:59:26.197Z,1006.5
2022-09-01T13:00:27.386Z,1006.6
2022-09-01T13:01:28.560Z,1006.6
2022-09-01T13:02:29.580Z,1006.5
2022-09-01T13:03:30.358Z,1006.5
2022-09-01T13:04:31.373Z,1006.5
2022-09-01T13:05:36.246Z,1006.5
2022-09-01T13:06:33.540Z,1006.6
2022-09-01T13:07:34.403Z,1006.5
2022-09-01T13:08:37.626Z,1006.5
2022-09-01T13:09:37.408Z,1006.5
2022-09-01T13:10:38.431Z,1006.5
2022-09-01T13:12:40.398Z,1006.5
2022-09-01T13:13:42.551Z,1006.5
2022-09-01T13:14:42.470Z,1006.5
2022-09-01T13:15:43.429Z,1006.5
2022-09-01T13:16:44.424Z,1006.5
2022-09-01T13:17:45.433Z,1006.5
2022-09-01T13:19:48.447Z,1006.5